sensor_id;sensor_type;location;lat;lon;timestamp;P1;durP1;ratioP1;P2;durP2;ratioP2
72649;SDS011;61467;50.674;4.618;2022-11-20T00:00:39;49.05;;;17.90;;
72649;SDS011;61467;50.674;4.618;2022-11-20T00:03:06;47.05;;;18.58;;
72649;SDS011;61467;50.674;4.618;2022-11-20T00:05:33;46.30;;;18.33;;
72649;SDS011;61467;50.674;4.618;2022-11-20T00:07:59;49.22;;;18.83;;
72649;SDS011;61467;50.674;4.618;2022-11-20T00:10:26;43.22;;;17.55;;
72649;SDS011;61467;50.674;4.618;2022-11-20T00:12:53;47.35;;;18.70;;
72649;SDS011;61467;50.674;4.618;2022-11-20T00:15:21;52.22;;;20.38;;
72649;SDS011;61467;50.674;4.618;2022-11-20T00:17:47;50.87;;;20.00;;
72649;SDS011;61467;50.674;4.618;2022-11-20T00:20:14;53.20;;;19.52;;
72649;SDS011;61467;50.674;4.618;2022-11-20T00:22:41;54.03;;;20.48;;
72649;SDS011;61467;50.674;4.618;2022-11-20T00:25:08;55.60;;;21.17;;
72649;SDS011;61467;50.674;4.618;2022-11-20T00:27:34;48.15;;;18.77;;
72649;SDS011;61467;50.674;4.618;2022-11-20T00:30:01;47.43;;;18.90;;
72649;SDS011;61467;50.674;4.618;2022-11-20T00:32:30;47.25;;;18.10;;
72649;SDS011;61467;50.674;4.618;2022-11-20T00:34:57;50.65;;;19.63;;
72649;SDS011;61467;50.674;4.618;2022-11-20T00:37:23;47.65;;;19.38;;
72649;SDS011;61467;50.674;4.618;2022-11-20T00:39:50;50.08;;;19.45;;
72649;SDS011;61467;50.674;4.618;2022-11-20T00:42:16;51.37;;;18.93;;
72649;SDS011;61467;50.674;4.618;2022-11-20T00:44:43;53.88;;;20.02;;
72649;SDS011;61467;50.674;4.618;2022-11-20T00:47:10;48.90;;;19.63;;
72649;SDS011;61467;50.674;4.618;2022-11-20T00:49:38;56.28;;;20.13;;
72649;SDS011;61467;50.674;4.618;2022-11-20T00:52:04;53.10;;;20.40;;
72649;SDS011;61467;50.674;4.618;2022-11-20T00:54:31;53.20;;;21.00;;
72649;SDS011;61467;50.674;4.618;2022-11-20T00:56:58;53.75;;;20.50;;
72649;SDS011;61467;50.674;4.618;2022-11-20T00:59:24;53.47;;;19.83;;
72649;SDS011;61467;50.674;4.618;2022-11-20T01:01:51;50.95;;;20.58;;
72649;SDS011;61467;50.674;4.618;2022-11-20T01:04:18;54.30;;;20.83;;
72649;SDS011;61467;50.674;4.618;2022-11-20T01:06:46;48.73;;;18.93;;
72649;SDS011;61467;50.674;4.618;2022-11-20T01:09:13;49.75;;;18.13;;
72649;SDS011;61467;50.674;4.618;2022-11-20T01:11:41;49.28;;;19.02;;
72649;SDS011;61467;50.674;4.618;2022-11-20T01:14:10;45.05;;;18.95;;
72649;SDS011;61467;50.674;4.618;2022-11-20T01:16:39;49.83;;;18.80;;
72649;SDS011;61467;50.674;4.618;2022-11-20T01:19:07;45.70;;;18.23;;
72649;SDS011;61467;50.674;4.618;2022-11-20T01:21:37;48.65;;;19.00;;
72649;SDS011;61467;50.674;4.618;2022-11-20T01:24:07;45.90;;;18.90;;
72649;SDS011;61467;50.674;4.618;2022-11-20T01:26:37;49.58;;;18.83;;
72649;SDS011;61467;50.674;4.618;2022-11-20T01:29:05;47.90;;;18.67;;
72649;SDS011;61467;50.674;4.618;2022-11-20T01:31:40;49.73;;;17.77;;
72649;SDS011;61467;50.674;4.618;2022-11-20T01:34:08;41.60;;;17.30;;
72649;SDS011;61467;50.674;4.618;2022-11-20T01:36:37;47.88;;;18.02;;
72649;SDS011;61467;50.674;4.618;2022-11-20T01:39:07;44.92;;;17.58;;
72649;SDS011;61467;50.674;4.618;2022-11-20T01:41:37;44.17;;;17.85;;
72649;SDS011;61467;50.674;4.618;2022-11-20T01:44:22;45.67;;;18.50;;
72649;SDS011;61467;50.674;4.618;2022-11-20T01:47:20;44.17;;;18.15;;
72649;SDS011;61467;50.674;4.618;2022-11-20T01:49:50;49.85;;;18.45;;
72649;SDS011;61467;50.674;4.618;2022-11-20T01:52:22;44.63;;;17.80;;
72649;SDS011;61467;50.674;4.618;2022-11-20T01:54:52;45.42;;;18.58;;
72649;SDS011;61467;50.674;4.618;2022-11-20T01:57:23;50.70;;;19.73;;
72649;SDS011;61467;50.674;4.618;2022-11-20T01:59:52;46.13;;;18.23;;
72649;SDS011;61467;50.674;4.618;2022-11-20T02:02:23;46.90;;;18.30;;
72649;SDS011;61467;50.674;4.618;2022-11-20T02:04:50;53.63;;;18.30;;
72649;SDS011;61467;50.674;4.618;2022-11-20T02:07:19;47.65;;;18.17;;
72649;SDS011;61467;50.674;4.618;2022-11-20T02:09:47;47.57;;;18.60;;
72649;SDS011;61467;50.674;4.618;2022-11-20T02:12:15;45.60;;;18.55;;
72649;SDS011;61467;50.674;4.618;2022-11-20T02:14:56;45.20;;;17.50;;
72649;SDS011;61467;50.674;4.618;2022-11-20T02:17:23;46.10;;;18.63;;
72649;SDS011;61467;50.674;4.618;2022-11-20T02:19:50;49.17;;;19.45;;
72649;SDS011;61467;50.674;4.618;2022-11-20T02:22:18;45.90;;;19.27;;
72649;SDS011;61467;50.674;4.618;2022-11-20T02:24:50;46.70;;;19.10;;
72649;SDS011;61467;50.674;4.618;2022-11-20T02:27:17;49.70;;;18.40;;
72649;SDS011;61467;50.674;4.618;2022-11-20T02:29:45;46.65;;;18.88;;
72649;SDS011;61467;50.674;4.618;2022-11-20T02:32:19;46.20;;;17.10;;
72649;SDS011;61467;50.674;4.618;2022-11-20T02:34:46;54.33;;;19.40;;
72649;SDS011;61467;50.674;4.618;2022-11-20T02:37:13;47.45;;;18.27;;
72649;SDS011;61467;50.674;4.618;2022-11-20T02:39:40;46.17;;;18.92;;
72649;SDS011;61467;50.674;4.618;2022-11-20T02:42:09;45.05;;;17.10;;
72649;SDS011;61467;50.674;4.618;2022-11-20T02:44:36;42.47;;;17.73;;
72649;SDS011;61467;50.674;4.618;2022-11-20T02:47:02;39.27;;;16.00;;
72649;SDS011;61467;50.674;4.618;2022-11-20T02:49:29;44.33;;;16.27;;
72649;SDS011;61467;50.674;4.618;2022-11-20T02:51:56;46.35;;;17.70;;
72649;SDS011;61467;50.674;4.618;2022-11-20T02:54:23;45.97;;;18.02;;
72649;SDS011;61467;50.674;4.618;2022-11-20T02:56:50;44.15;;;17.30;;
72649;SDS011;61467;50.674;4.618;2022-11-20T02:59:18;41.17;;;16.33;;
72649;SDS011;61467;50.674;4.618;2022-11-20T03:01:45;42.63;;;17.08;;
72649;SDS011;61467;50.674;4.618;2022-11-20T03:04:11;42.33;;;17.20;;
72649;SDS011;61467;50.674;4.618;2022-11-20T03:06:38;43.28;;;17.38;;
72649;SDS011;61467;50.674;4.618;2022-11-20T03:09:05;41.70;;;16.45;;
72649;SDS011;61467;50.674;4.618;2022-11-20T03:11:31;45.37;;;16.77;;
72649;SDS011;61467;50.674;4.618;2022-11-20T03:14:01;42.95;;;16.15;;
72649;SDS011;61467;50.674;4.618;2022-11-20T03:16:30;41.75;;;15.88;;
72649;SDS011;61467;50.674;4.618;2022-11-20T03:18:57;43.22;;;16.85;;
72649;SDS011;61467;50.674;4.618;2022-11-20T03:21:24;44.65;;;16.05;;
72649;SDS011;61467;50.674;4.618;2022-11-20T03:23:53;39.13;;;15.27;;
72649;SDS011;61467;50.674;4.618;2022-11-20T03:26:21;37.63;;;14.73;;
72649;SDS011;61467;50.674;4.618;2022-11-20T03:28:49;40.17;;;15.70;;
72649;SDS011;61467;50.674;4.618;2022-11-20T03:31:18;36.53;;;14.80;;
72649;SDS011;61467;50.674;4.618;2022-11-20T03:33:48;34.28;;;14.18;;
72649;SDS011;61467;50.674;4.618;2022-11-20T03:36:16;37.77;;;14.27;;
72649;SDS011;61467;50.674;4.618;2022-11-20T03:38:43;36.08;;;13.52;;
72649;SDS011;61467;50.674;4.618;2022-11-20T03:41:11;37.70;;;15.30;;
72649;SDS011;61467;50.674;4.618;2022-11-20T03:43:39;32.75;;;13.98;;
72649;SDS011;61467;50.674;4.618;2022-11-20T03:46:06;31.95;;;13.07;;
72649;SDS011;61467;50.674;4.618;2022-11-20T03:48:33;30.00;;;12.03;;
72649;SDS011;61467;50.674;4.618;2022-11-20T03:51:08;34.13;;;13.38;;
72649;SDS011;61467;50.674;4.618;2022-11-20T03:53:36;31.88;;;12.73;;
72649;SDS011;61467;50.674;4.618;2022-11-20T03:56:03;30.80;;;11.73;;
72649;SDS011;61467;50.674;4.618;2022-11-20T03:58:30;33.67;;;12.48;;
72649;SDS011;61467;50.674;4.618;2022-11-20T04:01:03;30.17;;;11.73;;
72649;SDS011;61467;50.674;4.618;2022-11-20T04:03:30;29.20;;;11.13;;
72649;SDS011;61467;50.674;4.618;2022-11-20T04:06:00;27.92;;;11.60;;
72649;SDS011;61467;50.674;4.618;2022-11-20T04:08:29;30.48;;;11.38;;
72649;SDS011;61467;50.674;4.618;2022-11-20T04:10:56;32.95;;;12.07;;
72649;SDS011;61467;50.674;4.618;2022-11-20T04:13:23;32.90;;;11.57;;
72649;SDS011;61467;50.674;4.618;2022-11-20T04:15:49;30.63;;;12.05;;
72649;SDS011;61467;50.674;4.618;2022-11-20T04:18:16;28.67;;;12.10;;
72649;SDS011;61467;50.674;4.618;2022-11-20T04:20:42;27.70;;;11.15;;
72649;SDS011;61467;50.674;4.618;2022-11-20T04:23:09;31.35;;;11.43;;
72649;SDS011;61467;50.674;4.618;2022-11-20T04:25:37;29.43;;;11.10;;
72649;SDS011;61467;50.674;4.618;2022-11-20T04:28:04;32.45;;;12.15;;
72649;SDS011;61467;50.674;4.618;2022-11-20T04:30:31;31.60;;;12.52;;
72649;SDS011;61467;50.674;4.618;2022-11-20T04:32:58;29.75;;;12.07;;
72649;SDS011;61467;50.674;4.618;2022-11-20T04:35:25;30.77;;;11.93;;
72649;SDS011;61467;50.674;4.618;2022-11-20T04:37:51;28.27;;;11.97;;
72649;SDS011;61467;50.674;4.618;2022-11-20T04:40:18;28.38;;;10.50;;
72649;SDS011;61467;50.674;4.618;2022-11-20T04:42:46;31.77;;;12.75;;
72649;SDS011;61467;50.674;4.618;2022-11-20T04:45:13;28.88;;;11.63;;
72649;SDS011;61467;50.674;4.618;2022-11-20T04:47:39;33.47;;;13.95;;
72649;SDS011;61467;50.674;4.618;2022-11-20T04:50:06;31.03;;;12.20;;
72649;SDS011;61467;50.674;4.618;2022-11-20T04:52:33;33.03;;;12.02;;
72649;SDS011;61467;50.674;4.618;2022-11-20T04:55:00;34.25;;;13.85;;
72649;SDS011;61467;50.674;4.618;2022-11-20T04:57:27;35.97;;;13.30;;
72649;SDS011;61467;50.674;4.618;2022-11-20T04:59:55;37.80;;;13.70;;
72649;SDS011;61467;50.674;4.618;2022-11-20T05:02:21;34.43;;;12.70;;
72649;SDS011;61467;50.674;4.618;2022-11-20T05:04:49;35.83;;;13.27;;
72649;SDS011;61467;50.674;4.618;2022-11-20T05:07:16;45.15;;;15.50;;
72649;SDS011;61467;50.674;4.618;2022-11-20T05:09:42;34.97;;;14.15;;
72649;SDS011;61467;50.674;4.618;2022-11-20T05:12:09;39.47;;;13.80;;
72649;SDS011;61467;50.674;4.618;2022-11-20T05:14:36;42.43;;;15.73;;
72649;SDS011;61467;50.674;4.618;2022-11-20T05:17:04;40.67;;;14.95;;
72649;SDS011;61467;50.674;4.618;2022-11-20T05:19:31;40.33;;;14.13;;
72649;SDS011;61467;50.674;4.618;2022-11-20T05:21:57;39.40;;;14.40;;
72649;SDS011;61467;50.674;4.618;2022-11-20T05:24:24;37.92;;;13.18;;
72649;SDS011;61467;50.674;4.618;2022-11-20T05:26:50;37.77;;;14.40;;
72649;SDS011;61467;50.674;4.618;2022-11-20T05:29:17;37.78;;;13.40;;
72649;SDS011;61467;50.674;4.618;2022-11-20T05:31:44;40.10;;;14.85;;
72649;SDS011;61467;50.674;4.618;2022-11-20T05:34:12;43.00;;;15.13;;
72649;SDS011;61467;50.674;4.618;2022-11-20T05:36:38;44.15;;;15.02;;
72649;SDS011;61467;50.674;4.618;2022-11-20T05:39:05;35.03;;;13.33;;
72649;SDS011;61467;50.674;4.618;2022-11-20T05:41:32;36.83;;;13.90;;
72649;SDS011;61467;50.674;4.618;2022-11-20T05:43:59;37.63;;;13.52;;
72649;SDS011;61467;50.674;4.618;2022-11-20T05:46:26;38.28;;;14.00;;
72649;SDS011;61467;50.674;4.618;2022-11-20T05:48:53;35.60;;;13.77;;
72649;SDS011;61467;50.674;4.618;2022-11-20T05:51:21;38.90;;;14.37;;
72649;SDS011;61467;50.674;4.618;2022-11-20T05:53:48;35.55;;;14.27;;
72649;SDS011;61467;50.674;4.618;2022-11-20T05:56:15;37.28;;;14.55;;
72649;SDS011;61467;50.674;4.618;2022-11-20T05:58:43;38.65;;;14.38;;
72649;SDS011;61467;50.674;4.618;2022-11-20T06:01:11;42.30;;;15.07;;
72649;SDS011;61467;50.674;4.618;2022-11-20T06:03:41;38.40;;;14.53;;
72649;SDS011;61467;50.674;4.618;2022-11-20T06:06:11;38.65;;;14.43;;
72649;SDS011;61467;50.674;4.618;2022-11-20T06:08:39;41.53;;;14.70;;
72649;SDS011;61467;50.674;4.618;2022-11-20T06:11:06;37.78;;;14.48;;
72649;SDS011;61467;50.674;4.618;2022-11-20T06:13:35;46.22;;;15.38;;
72649;SDS011;61467;50.674;4.618;2022-11-20T06:16:02;42.00;;;16.07;;
72649;SDS011;61467;50.674;4.618;2022-11-20T06:18:29;39.17;;;15.93;;
72649;SDS011;61467;50.674;4.618;2022-11-20T06:20:59;44.33;;;16.42;;
72649;SDS011;61467;50.674;4.618;2022-11-20T06:23:27;43.42;;;15.43;;
72649;SDS011;61467;50.674;4.618;2022-11-20T06:25:56;43.05;;;15.07;;
72649;SDS011;61467;50.674;4.618;2022-11-20T06:28:23;39.07;;;14.93;;
72649;SDS011;61467;50.674;4.618;2022-11-20T06:30:50;42.17;;;14.57;;
72649;SDS011;61467;50.674;4.618;2022-11-20T06:33:17;44.85;;;16.42;;
72649;SDS011;61467;50.674;4.618;2022-11-20T06:35:43;42.88;;;14.60;;
72649;SDS011;61467;50.674;4.618;2022-11-20T06:38:10;42.50;;;14.55;;
72649;SDS011;61467;50.674;4.618;2022-11-20T06:40:39;40.93;;;14.73;;
72649;SDS011;61467;50.674;4.618;2022-11-20T06:43:07;45.05;;;15.45;;
72649;SDS011;61467;50.674;4.618;2022-11-20T06:45:34;44.83;;;16.05;;
72649;SDS011;61467;50.674;4.618;2022-11-20T06:48:01;42.42;;;14.60;;
72649;SDS011;61467;50.674;4.618;2022-11-20T06:50:27;41.47;;;15.63;;
72649;SDS011;61467;50.674;4.618;2022-11-20T06:52:54;46.93;;;15.93;;
72649;SDS011;61467;50.674;4.618;2022-11-20T06:55:21;39.75;;;14.35;;
72649;SDS011;61467;50.674;4.618;2022-11-20T06:57:47;42.00;;;15.10;;
72649;SDS011;61467;50.674;4.618;2022-11-20T07:00:15;40.45;;;15.45;;
72649;SDS011;61467;50.674;4.618;2022-11-20T07:02:42;46.58;;;17.05;;
72649;SDS011;61467;50.674;4.618;2022-11-20T07:05:09;45.23;;;15.33;;
72649;SDS011;61467;50.674;4.618;2022-11-20T07:07:35;42.85;;;14.85;;
72649;SDS011;61467;50.674;4.618;2022-11-20T07:10:02;38.40;;;14.70;;
72649;SDS011;61467;50.674;4.618;2022-11-20T07:12:29;42.22;;;14.95;;
72649;SDS011;61467;50.674;4.618;2022-11-20T07:14:56;43.80;;;14.77;;
72649;SDS011;61467;50.674;4.618;2022-11-20T07:17:24;38.50;;;14.57;;
72649;SDS011;61467;50.674;4.618;2022-11-20T07:19:51;41.63;;;14.40;;
72649;SDS011;61467;50.674;4.618;2022-11-20T07:22:18;37.35;;;14.77;;
72649;SDS011;61467;50.674;4.618;2022-11-20T07:24:46;40.50;;;13.40;;
72649;SDS011;61467;50.674;4.618;2022-11-20T07:27:13;39.00;;;14.07;;
72649;SDS011;61467;50.674;4.618;2022-11-20T07:29:40;38.30;;;13.87;;
72649;SDS011;61467;50.674;4.618;2022-11-20T07:32:06;43.92;;;14.80;;
72649;SDS011;61467;50.674;4.618;2022-11-20T07:34:34;37.53;;;13.40;;
72649;SDS011;61467;50.674;4.618;2022-11-20T07:37:01;35.22;;;13.38;;
72649;SDS011;61467;50.674;4.618;2022-11-20T07:39:27;34.95;;;12.77;;
72649;SDS011;61467;50.674;4.618;2022-11-20T07:41:54;39.37;;;13.40;;
72649;SDS011;61467;50.674;4.618;2022-11-20T07:44:21;34.47;;;12.35;;
72649;SDS011;61467;50.674;4.618;2022-11-20T07:46:47;39.03;;;14.20;;
72649;SDS011;61467;50.674;4.618;2022-11-20T07:49:14;45.22;;;15.80;;
72649;SDS011;61467;50.674;4.618;2022-11-20T07:51:42;47.47;;;14.85;;
72649;SDS011;61467;50.674;4.618;2022-11-20T07:54:08;47.40;;;15.27;;
72649;SDS011;61467;50.674;4.618;2022-11-20T07:56:35;47.17;;;15.38;;
72649;SDS011;61467;50.674;4.618;2022-11-20T07:59:01;43.05;;;15.63;;
72649;SDS011;61467;50.674;4.618;2022-11-20T08:01:29;43.10;;;14.07;;
72649;SDS011;61467;50.674;4.618;2022-11-20T08:03:56;41.55;;;15.35;;
72649;SDS011;61467;50.674;4.618;2022-11-20T08:06:22;40.27;;;13.90;;
72649;SDS011;61467;50.674;4.618;2022-11-20T08:08:51;41.88;;;13.85;;
72649;SDS011;61467;50.674;4.618;2022-11-20T08:11:17;39.53;;;12.98;;
72649;SDS011;61467;50.674;4.618;2022-11-20T08:14:02;44.00;;;13.35;;
72649;SDS011;61467;50.674;4.618;2022-11-20T08:16:41;36.42;;;14.35;;
72649;SDS011;61467;50.674;4.618;2022-11-20T08:19:08;42.67;;;13.63;;
72649;SDS011;61467;50.674;4.618;2022-11-20T08:21:35;46.55;;;15.02;;
72649;SDS011;61467;50.674;4.618;2022-11-20T08:24:04;41.28;;;14.32;;
72649;SDS011;61467;50.674;4.618;2022-11-20T08:26:32;41.92;;;13.82;;
72649;SDS011;61467;50.674;4.618;2022-11-20T08:28:59;40.55;;;13.77;;
72649;SDS011;61467;50.674;4.618;2022-11-20T08:31:26;39.53;;;13.57;;
72649;SDS011;61467;50.674;4.618;2022-11-20T08:33:53;42.08;;;13.13;;
72649;SDS011;61467;50.674;4.618;2022-11-20T08:36:20;44.63;;;14.60;;
72649;SDS011;61467;50.674;4.618;2022-11-20T08:38:48;38.03;;;13.63;;
72649;SDS011;61467;50.674;4.618;2022-11-20T08:41:17;38.53;;;13.90;;
72649;SDS011;61467;50.674;4.618;2022-11-20T08:43:51;35.63;;;12.83;;
72649;SDS011;61467;50.674;4.618;2022-11-20T08:46:18;34.22;;;12.80;;
72649;SDS011;61467;50.674;4.618;2022-11-20T08:48:46;33.28;;;14.13;;
72649;SDS011;61467;50.674;4.618;2022-11-20T08:51:12;33.47;;;12.43;;
72649;SDS011;61467;50.674;4.618;2022-11-20T08:53:39;31.33;;;11.80;;
72649;SDS011;61467;50.674;4.618;2022-11-20T08:56:06;26.13;;;11.03;;
72649;SDS011;61467;50.674;4.618;2022-11-20T08:58:36;32.85;;;11.38;;
72649;SDS011;61467;50.674;4.618;2022-11-20T09:01:03;28.88;;;11.80;;
72649;SDS011;61467;50.674;4.618;2022-11-20T09:03:29;28.80;;;11.13;;
72649;SDS011;61467;50.674;4.618;2022-11-20T09:05:57;28.17;;;10.80;;
72649;SDS011;61467;50.674;4.618;2022-11-20T09:08:24;25.77;;;10.67;;
72649;SDS011;61467;50.674;4.618;2022-11-20T09:10:51;29.15;;;12.88;;
72649;SDS011;61467;50.674;4.618;2022-11-20T09:13:18;23.05;;;10.13;;
72649;SDS011;61467;50.674;4.618;2022-11-20T09:15:46;27.45;;;11.70;;
72649;SDS011;61467;50.674;4.618;2022-11-20T09:18:13;25.70;;;10.68;;
72649;SDS011;61467;50.674;4.618;2022-11-20T09:20:39;26.73;;;11.13;;
72649;SDS011;61467;50.674;4.618;2022-11-20T09:23:06;27.55;;;10.40;;
72649;SDS011;61467;50.674;4.618;2022-11-20T09:25:33;25.60;;;10.60;;
72649;SDS011;61467;50.674;4.618;2022-11-20T09:27:59;28.30;;;10.60;;
72649;SDS011;61467;50.674;4.618;2022-11-20T09:30:26;25.35;;;11.10;;
72649;SDS011;61467;50.674;4.618;2022-11-20T09:32:55;23.17;;;10.00;;
72649;SDS011;61467;50.674;4.618;2022-11-20T09:35:21;21.73;;;9.10;;
72649;SDS011;61467;50.674;4.618;2022-11-20T09:37:48;23.83;;;9.45;;
72649;SDS011;61467;50.674;4.618;2022-11-20T09:40:17;21.88;;;8.73;;
72649;SDS011;61467;50.674;4.618;2022-11-20T09:42:47;21.17;;;8.55;;
72649;SDS011;61467;50.674;4.618;2022-11-20T09:45:24;20.30;;;8.50;;
72649;SDS011;61467;50.674;4.618;2022-11-20T09:51:06;19.00;;;8.70;;
72649;SDS011;61467;50.674;4.618;2022-11-20T09:53:44;20.17;;;7.32;;
72649;SDS011;61467;50.674;4.618;2022-11-20T09:56:17;18.20;;;6.60;;
72649;SDS011;61467;50.674;4.618;2022-11-20T09:58:47;16.57;;;6.23;;
72649;SDS011;61467;50.674;4.618;2022-11-20T10:01:17;13.15;;;6.57;;
72649;SDS011;61467;50.674;4.618;2022-11-20T10:03:49;14.98;;;6.90;;
72649;SDS011;61467;50.674;4.618;2022-11-20T10:06:21;13.80;;;6.43;;
72649;SDS011;61467;50.674;4.618;2022-11-20T10:08:55;14.02;;;6.40;;
72649;SDS011;61467;50.674;4.618;2022-11-20T10:11:30;13.70;;;6.13;;
72649;SDS011;61467;50.674;4.618;2022-11-20T10:14:09;10.88;;;5.30;;
72649;SDS011;61467;50.674;4.618;2022-11-20T10:16:46;12.40;;;4.85;;
72649;SDS011;61467;50.674;4.618;2022-11-20T10:19:34;11.32;;;4.85;;
72649;SDS011;61467;50.674;4.618;2022-11-20T10:22:12;12.80;;;4.90;;
72649;SDS011;61467;50.674;4.618;2022-11-20T10:24:53;11.43;;;4.30;;
72649;SDS011;61467;50.674;4.618;2022-11-20T10:27:41;13.25;;;5.00;;
72649;SDS011;61467;50.674;4.618;2022-11-20T10:30:21;11.85;;;4.63;;
72649;SDS011;61467;50.674;4.618;2022-11-20T10:32:51;13.20;;;4.47;;
72649;SDS011;61467;50.674;4.618;2022-11-20T10:35:23;9.23;;;3.78;;
72649;SDS011;61467;50.674;4.618;2022-11-20T10:37:54;11.13;;;3.97;;
72649;SDS011;61467;50.674;4.618;2022-11-20T10:40:26;9.15;;;3.70;;
72649;SDS011;61467;50.674;4.618;2022-11-20T10:42:58;12.65;;;3.92;;
72649;SDS011;61467;50.674;4.618;2022-11-20T10:45:31;11.23;;;3.92;;
72649;SDS011;61467;50.674;4.618;2022-11-20T10:48:08;10.85;;;3.80;;
72649;SDS011;61467;50.674;4.618;2022-11-20T10:50:42;9.80;;;3.37;;
72649;SDS011;61467;50.674;4.618;2022-11-20T10:53:20;9.98;;;3.13;;
72649;SDS011;61467;50.674;4.618;2022-11-20T10:56:00;10.02;;;3.03;;
72649;SDS011;61467;50.674;4.618;2022-11-20T10:58:34;8.23;;;3.25;;
72649;SDS011;61467;50.674;4.618;2022-11-20T11:01:13;8.27;;;3.42;;
72649;SDS011;61467;50.674;4.618;2022-11-20T11:03:42;11.17;;;3.27;;
72649;SDS011;61467;50.674;4.618;2022-11-20T11:06:12;7.78;;;2.70;;
72649;SDS011;61467;50.674;4.618;2022-11-20T11:08:47;9.45;;;2.88;;
72649;SDS011;61467;50.674;4.618;2022-11-20T11:11:18;8.98;;;2.72;;
72649;SDS011;61467;50.674;4.618;2022-11-20T11:13:48;7.88;;;2.42;;
72649;SDS011;61467;50.674;4.618;2022-11-20T11:16:22;9.13;;;2.27;;
72649;SDS011;61467;50.674;4.618;2022-11-20T11:18:50;7.65;;;2.50;;
72649;SDS011;61467;50.674;4.618;2022-11-20T11:21:23;6.72;;;2.33;;
72649;SDS011;61467;50.674;4.618;2022-11-20T11:24:00;6.97;;;2.17;;
72649;SDS011;61467;50.674;4.618;2022-11-20T11:26:29;9.02;;;2.78;;
72649;SDS011;61467;50.674;4.618;2022-11-20T11:28:57;10.37;;;2.50;;
72649;SDS011;61467;50.674;4.618;2022-11-20T11:31:25;7.53;;;2.00;;
72649;SDS011;61467;50.674;4.618;2022-11-20T11:34:03;7.53;;;2.20;;
72649;SDS011;61467;50.674;4.618;2022-11-20T11:36:32;7.80;;;2.28;;
72649;SDS011;61467;50.674;4.618;2022-11-20T11:38:59;8.98;;;2.10;;
72649;SDS011;61467;50.674;4.618;2022-11-20T11:41:28;8.77;;;3.00;;
72649;SDS011;61467;50.674;4.618;2022-11-20T11:44:00;6.35;;;2.38;;
72649;SDS011;61467;50.674;4.618;2022-11-20T11:46:57;7.97;;;2.38;;
72649;SDS011;61467;50.674;4.618;2022-11-20T11:49:24;7.68;;;2.50;;
72649;SDS011;61467;50.674;4.618;2022-11-20T11:52:08;9.00;;;2.30;;
72649;SDS011;61467;50.674;4.618;2022-11-20T11:54:41;9.50;;;2.47;;
72649;SDS011;61467;50.674;4.618;2022-11-20T11:57:13;8.30;;;2.45;;
72649;SDS011;61467;50.674;4.618;2022-11-20T11:59:47;8.57;;;2.67;;
72649;SDS011;61467;50.674;4.618;2022-11-20T12:02:25;9.10;;;2.20;;
72649;SDS011;61467;50.674;4.618;2022-11-20T12:05:02;9.10;;;2.10;;
72649;SDS011;61467;50.674;4.618;2022-11-20T12:07:42;8.27;;;2.30;;
72649;SDS011;61467;50.674;4.618;2022-11-20T12:10:14;13.18;;;2.50;;
72649;SDS011;61467;50.674;4.618;2022-11-20T12:12:46;6.75;;;2.58;;
72649;SDS011;61467;50.674;4.618;2022-11-20T12:15:20;8.90;;;2.20;;
72649;SDS011;61467;50.674;4.618;2022-11-20T12:17:51;8.10;;;2.40;;
72649;SDS011;61467;50.674;4.618;2022-11-20T12:20:18;9.07;;;2.60;;
72649;SDS011;61467;50.674;4.618;2022-11-20T12:22:51;5.80;;;2.10;;
72649;SDS011;61467;50.674;4.618;2022-11-20T12:25:24;7.80;;;2.50;;
72649;SDS011;61467;50.674;4.618;2022-11-20T12:27:57;7.78;;;2.97;;
72649;SDS011;61467;50.674;4.618;2022-11-20T12:30:41;8.48;;;3.08;;
72649;SDS011;61467;50.674;4.618;2022-11-20T12:33:24;12.13;;;2.90;;
72649;SDS011;61467;50.674;4.618;2022-11-20T12:36:06;9.02;;;2.80;;
72649;SDS011;61467;50.674;4.618;2022-11-20T12:38:54;8.02;;;2.85;;
72649;SDS011;61467;50.674;4.618;2022-11-20T12:41:43;7.88;;;2.78;;
72649;SDS011;61467;50.674;4.618;2022-11-20T12:44:42;7.05;;;2.83;;
72649;SDS011;61467;50.674;4.618;2022-11-20T12:47:37;8.97;;;2.40;;
72649;SDS011;61467;50.674;4.618;2022-11-20T12:50:16;8.35;;;2.63;;
72649;SDS011;61467;50.674;4.618;2022-11-20T12:52:52;8.50;;;2.40;;
72649;SDS011;61467;50.674;4.618;2022-11-20T12:55:28;7.55;;;2.50;;
72649;SDS011;61467;50.674;4.618;2022-11-20T12:58:04;9.15;;;2.42;;
72649;SDS011;61467;50.674;4.618;2022-11-20T13:00:37;5.97;;;2.10;;
72649;SDS011;61467;50.674;4.618;2022-11-20T13:03:20;7.78;;;2.20;;
72649;SDS011;61467;50.674;4.618;2022-11-20T13:06:02;6.35;;;2.33;;
72649;SDS011;61467;50.674;4.618;2022-11-20T13:08:38;6.47;;;2.20;;
72649;SDS011;61467;50.674;4.618;2022-11-20T13:11:09;6.28;;;2.25;;
72649;SDS011;61467;50.674;4.618;2022-11-20T13:13:45;6.53;;;1.90;;
72649;SDS011;61467;50.674;4.618;2022-11-20T13:16:26;7.30;;;2.00;;
72649;SDS011;61467;50.674;4.618;2022-11-20T13:19:01;11.38;;;2.65;;
72649;SDS011;61467;50.674;4.618;2022-11-20T13:21:35;8.93;;;2.60;;
72649;SDS011;61467;50.674;4.618;2022-11-20T13:24:04;8.82;;;2.00;;
72649;SDS011;61467;50.674;4.618;2022-11-20T13:26:32;5.80;;;1.90;;
72649;SDS011;61467;50.674;4.618;2022-11-20T13:29:00;8.25;;;2.30;;
72649;SDS011;61467;50.674;4.618;2022-11-20T13:31:34;7.60;;;2.55;;
72649;SDS011;61467;50.674;4.618;2022-11-20T13:34:04;7.55;;;2.40;;
72649;SDS011;61467;50.674;4.618;2022-11-20T13:36:33;6.20;;;2.10;;
72649;SDS011;61467;50.674;4.618;2022-11-20T13:39:01;7.27;;;2.20;;
72649;SDS011;61467;50.674;4.618;2022-11-20T13:41:29;8.35;;;2.58;;
72649;SDS011;61467;50.674;4.618;2022-11-20T13:44:04;9.32;;;2.22;;
72649;SDS011;61467;50.674;4.618;2022-11-20T13:46:39;7.10;;;2.58;;
72649;SDS011;61467;50.674;4.618;2022-11-20T13:49:09;7.35;;;2.38;;
72649;SDS011;61467;50.674;4.618;2022-11-20T13:51:42;6.47;;;2.03;;
72649;SDS011;61467;50.674;4.618;2022-11-20T13:57:23;5.72;;;1.98;;
72649;SDS011;61467;50.674;4.618;2022-11-20T14:00:05;6.30;;;2.70;;
72649;SDS011;61467;50.674;4.618;2022-11-20T14:02:38;6.78;;;2.00;;
72649;SDS011;61467;50.674;4.618;2022-11-20T14:05:15;7.40;;;2.60;;
72649;SDS011;61467;50.674;4.618;2022-11-20T14:07:45;7.00;;;2.20;;
72649;SDS011;61467;50.674;4.618;2022-11-20T14:10:19;9.27;;;2.45;;
72649;SDS011;61467;50.674;4.618;2022-11-20T14:12:47;7.32;;;2.58;;
72649;SDS011;61467;50.674;4.618;2022-11-20T14:15:24;8.90;;;2.42;;
72649;SDS011;61467;50.674;4.618;2022-11-20T14:17:53;5.90;;;2.00;;
72649;SDS011;61467;50.674;4.618;2022-11-20T14:20:20;6.38;;;2.20;;
72649;SDS011;61467;50.674;4.618;2022-11-20T14:22:51;6.38;;;1.90;;
72649;SDS011;61467;50.674;4.618;2022-11-20T14:25:22;4.88;;;1.85;;
72649;SDS011;61467;50.674;4.618;2022-11-20T14:27:52;5.68;;;2.08;;
72649;SDS011;61467;50.674;4.618;2022-11-20T14:30:21;7.40;;;1.70;;
72649;SDS011;61467;50.674;4.618;2022-11-20T14:32:51;4.32;;;1.67;;
72649;SDS011;61467;50.674;4.618;2022-11-20T14:35:21;8.32;;;2.40;;
72649;SDS011;61467;50.674;4.618;2022-11-20T14:37:51;6.38;;;1.80;;
72649;SDS011;61467;50.674;4.618;2022-11-20T14:40:21;5.40;;;1.45;;
72649;SDS011;61467;50.674;4.618;2022-11-20T14:42:50;5.43;;;1.60;;
72649;SDS011;61467;50.674;4.618;2022-11-20T14:45:17;4.93;;;1.73;;
72649;SDS011;61467;50.674;4.618;2022-11-20T14:47:45;5.30;;;1.73;;
72649;SDS011;61467;50.674;4.618;2022-11-20T14:50:14;4.88;;;1.63;;